Waswanipi, Canada
Current Conditions -  °F | °C
As of 6:00 PM on Wednesday 22 Oct 2014 (Local Time) from CYNM Reporting Station
Clear Clear  
Wind Chill: 41°   Ceiling: Unl
Heat Index: 41°   Visibility: 9mi
Dew Point: 30°   Wind: 2mph
Humidity: 65%   Direction: 160°SSE
Pressure: 30.34"   Gusts: NA
Location:  49.65°N, 76.48°W
Report Text: CYNM 222200Z AUTO 16002KT 9SM CLR 05/M01 A3034 RMK ICG MISG SLP293
Loading
Personal Weather Stations






























Interactive Weather Map New forecast layout! Learn more

10-Day Weather Forecast

Advertisements
Track Severe Weather on mobile